createdAt,value
2023-01-19T04:55:07.097Z,98685.88
2023-01-19T04:58:10.203Z,98705.72
2023-01-19T05:01:12.364Z,98714.53
2023-01-19T05:04:14.855Z,98722.97
2023-01-19T05:07:17.226Z,98737.66
2023-01-19T05:10:20.213Z,98743.56
2023-01-19T05:13:22.334Z,98734.97
2023-01-19T05:16:24.877Z,98722.91
2023-01-19T05:19:27.178Z,98727.97
2023-01-19T05:22:29.739Z,98753.94
2023-01-19T05:25:31.917Z,98763.41
2023-01-19T05:28:34.405Z,98775.34
2023-01-19T05:31:37.272Z,98774.44
2023-01-19T05:34:40.080Z,98772.72
2023-01-19T05:37:42.485Z,98781.28
2023-01-19T05:40:44.962Z,98786.75
2023-01-19T05:43:47.164Z,98778.06
2023-01-19T05:46:49.653Z,98770.53
2023-01-19T05:49:51.753Z,98765.41
2023-01-19T05:52:54.152Z,98759.25
2023-01-19T05:56:02.971Z,98765.28
2023-01-19T05:59:05.462Z,98767.63
2023-01-19T06:02:07.676Z,98725.53
2023-01-19T06:05:10.254Z,98734.47
2023-01-19T06:08:12.430Z,98737.88
2023-01-19T06:11:14.882Z,98747.34
2023-01-19T06:14:17.003Z,98733.66
2023-01-19T06:17:20.621Z,98722.53
2023-01-19T06:20:22.854Z,98730.25
2023-01-19T06:23:31.334Z,98734.47
2023-01-19T06:26:33.531Z,98722.34
2023-01-19T06:29:36.004Z,98703.41
2023-01-19T06:32:38.385Z,98706.09
2023-01-19T06:35:43.457Z,98722.44
2023-01-19T06:38:46.273Z,98735.47
2023-01-19T06:41:48.735Z,98752.69
2023-01-19T06:44:50.892Z,98756.78
2023-01-19T06:47:53.250Z,98769.72
2023-01-19T06:50:57.797Z,98761.94
2023-01-19T06:54:01.003Z,98755.81
2023-01-19T06:57:04.126Z,98750.81
2023-01-19T07:00:08.804Z,98752.47
2023-01-19T07:03:19.876Z,98750.91
2023-01-19T07:06:22.963Z,98751.19
2023-01-19T07:09:25.539Z,98743.50
2023-01-19T07:12:28.070Z,98735.72
2023-01-19T07:15:30.233Z,98731.16
2023-01-19T07:18:33.134Z,98736.22
2023-01-19T07:21:35.226Z,98750.03
2023-01-19T07:24:38.069Z,98767.22
2023-01-19T07:27:40.607Z,98777.06
2023-01-19T07:30:43.942Z,98780.53
2023-01-19T07:33:46.868Z,98772.91
2023-01-19T07:36:49.797Z,98768.59
2023-01-19T07:39:51.929Z,98775.53
2023-01-19T07:42:54.327Z,98776.53
2023-01-19T07:46:01.758Z,98779.06
2023-01-19T07:49:04.229Z,98776.56
2023-01-19T07:52:06.501Z,98783.38
2023-01-19T07:55:09.630Z,98792.88
2023-01-19T07:58:11.752Z,98797.06
2023-01-19T08:01:14.548Z,98812.56
2023-01-19T08:04:19.072Z,98800.34
2023-01-19T08:07:21.336Z,98810.00
2023-01-19T08:10:26.872Z,98789.03
2023-01-19T08:14:29.941Z,98791.78
2023-01-19T08:17:32.356Z,98777.25
2023-01-19T08:20:34.672Z,98777.56
2023-01-19T08:23:40.868Z,98783.59
2023-01-19T08:26:43.046Z,98773.31
2023-01-19T08:29:45.572Z,98763.91
2023-01-19T08:32:47.694Z,98782.78
2023-01-19T08:35:52.914Z,98788.16
2023-01-19T08:38:55.107Z,98784.66
2023-01-19T08:41:58.105Z,98794.22
2023-01-19T08:45:00.320Z,98794.88
2023-01-19T08:48:04.185Z,98791.38
2023-01-19T08:51:06.339Z,98793.97
2023-01-19T08:54:09.434Z,98806.00
2023-01-19T08:57:11.613Z,98796.56
2023-01-19T09:00:14.682Z,98786.31
2023-01-19T09:03:17.040Z,98789.00
2023-01-19T09:06:19.518Z,98787.09
2023-01-19T09:09:21.645Z,98791.41
2023-01-19T09:12:24.115Z,98784.50
2023-01-19T09:15:26.635Z,98784.22
2023-01-19T09:18:29.988Z,98787.75
2023-01-19T09:21:32.119Z,98804.37
2023-01-19T09:24:34.981Z,98806.09
2023-01-19T09:27:37.099Z,98802.69
2023-01-19T09:30:42.794Z,98793.22
2023-01-19T09:33:44.872Z,98795.00
2023-01-19T09:36:47.332Z,98803.75
2023-01-19T09:39:49.465Z,98800.25
2023-01-19T09:43:01.244Z,98808.06
2023-01-19T09:46:30.153Z,98804.53
2023-01-19T09:49:41.113Z,98785.53
2023-01-19T09:52:50.992Z,98800.12
2023-01-19T09:55:53.397Z,98806.22
2023-01-19T09:58:55.639Z,98816.41
2023-01-19T10:02:30.282Z,98823.06
2023-01-19T10:05:54.251Z,98807.34
2023-01-19T10:09:11.694Z,98813.13
2023-01-19T10:12:32.515Z,98819.09
2023-01-19T10:15:55.607Z,98818.28
2023-01-19T10:19:22.282Z,98828.66
2023-01-19T10:22:28.230Z,98823.38
2023-01-19T10:25:32.022Z,98823.50
2023-01-19T10:28:36.483Z,98823.53
2023-01-19T10:31:42.303Z,98833.69
2023-01-19T10:34:44.552Z,98825.13
2023-01-19T10:37:46.991Z,98830.19
2023-01-19T10:41:04.966Z,98835.34
2023-01-19T10:44:09.375Z,98845.75
2023-01-19T10:47:20.053Z,98854.16
2023-01-19T10:50:39.667Z,98846.81
2023-01-19T10:53:52.616Z,98847.56
2023-01-19T10:57:01.076Z,98847.44
2023-01-19T11:00:06.383Z,98856.78
2023-01-19T11:03:31.753Z,98851.56
2023-01-19T11:06:35.107Z,98851.59
2023-01-19T11:09:37.488Z,98862.53
2023-01-19T11:12:42.470Z,98850.63
2023-01-19T11:15:46.861Z,98839.28
2023-01-19T11:18:52.450Z,98844.25
2023-01-19T11:22:22.770Z,98841.38
2023-01-19T11:25:31.715Z,98841.25
2023-01-19T11:28:39.732Z,98835.50
2023-01-19T11:31:41.912Z,98839.94
2023-01-19T11:34:44.401Z,98844.44
2023-01-19T11:37:46.592Z,98851.28
2023-01-19T11:40:56.541Z,98862.59
2023-01-19T11:44:22.814Z,98854.50
2023-01-19T11:47:28.079Z,98852.94
2023-01-19T11:50:38.904Z,98854.56
2023-01-19T11:53:46.943Z,98855.94
2023-01-19T11:56:52.363Z,98847.19
2023-01-19T11:59:55.528Z,98869.03
2023-01-19T12:03:17.849Z,98870.56
2023-01-19T12:06:42.280Z,98870.22
2023-01-19T12:09:47.887Z,98875.59
2023-01-19T12:12:52.968Z,98886.00
2023-01-19T12:16:01.021Z,98888.59
2023-01-19T12:19:18.687Z,98890.38
2023-01-19T12:22:22.545Z,98903.00
2023-01-19T12:25:41.317Z,98898.97
2023-01-19T12:28:48.683Z,98911.91
2023-01-19T12:32:13.063Z,98911.19
2023-01-19T12:35:52.361Z,98914.69
2023-01-19T12:39:09.982Z,98916.56
2023-01-19T12:42:17.107Z,98912.19
2023-01-19T12:45:31.478Z,98922.34
2023-01-19T12:48:35.544Z,98925.06
2023-01-19T12:51:38.545Z,98937.38
2023-01-19T12:55:04.078Z,98940.63
2023-01-19T12:58:27.129Z,98934.59
2023-01-19T13:01:29.423Z,98932.88
2023-01-19T13:04:33.515Z,98943.06
2023-01-19T13:08:07.045Z,98948.25
2023-01-19T13:11:15.024Z,98963.97
2023-01-19T13:14:29.024Z,98979.37
2023-01-19T13:17:44.386Z,98985.50
2023-01-19T13:32:42.230Z,99005.94
2023-01-19T13:35:52.180Z,99010.03
2023-01-19T13:38:56.137Z,99015.44
2023-01-19T13:42:02.696Z,99020.81
2023-01-19T13:45:37.087Z,99025.06
2023-01-19T13:48:40.042Z,99043.22
2023-01-19T13:51:42.155Z,99040.50
2023-01-19T13:54:53.352Z,99036.34
2023-01-19T13:57:56.531Z,99059.53
2023-01-19T14:00:59.053Z,99054.81
2023-01-19T14:04:01.659Z,99056.63
2023-01-19T14:07:13.115Z,99070.16
2023-01-19T14:10:16.827Z,99049.25
2023-01-19T14:13:30.798Z,99047.44
2023-01-19T14:16:33.300Z,99039.06
2023-01-19T14:19:52.441Z,99039.25
2023-01-19T14:22:54.818Z,99038.25
2023-01-19T14:25:57.565Z,99049.44
2023-01-19T14:29:07.908Z,99051.38
2023-01-19T14:32:10.003Z,99051.38
2023-01-19T14:35:15.343Z,99070.50
2023-01-19T14:38:17.550Z,99067.28
2023-01-19T14:41:33.714Z,99071.44
2023-01-19T14:44:38.754Z,99076.69
2023-01-19T14:47:44.244Z,99081.84
2023-01-19T14:51:02.078Z,99099.16
2023-01-19T14:57:40.441Z,99110.34
2023-01-19T15:00:43.896Z,99110.28
2023-01-19T15:03:46.227Z,99120.72
2023-01-19T15:06:48.758Z,99163.59
2023-01-19T15:09:51.500Z,99164.50
2023-01-19T15:12:54.649Z,99157.69
2023-01-19T15:15:58.520Z,99152.25
2023-01-19T15:19:01.095Z,99143.62
2023-01-19T15:22:10.884Z,99141.84
2023-01-19T15:25:15.326Z,99138.41
2023-01-19T15:28:19.928Z,99137.47
2023-01-19T15:31:24.690Z,99147.44
2023-01-19T15:34:26.802Z,99153.53
2023-01-19T15:37:29.245Z,99166.47
2023-01-19T15:40:31.610Z,99171.59
2023-01-19T15:43:34.133Z,99193.13
2023-01-19T15:46:37.083Z,99163.91
2023-01-19T15:49:39.437Z,99174.38
2023-01-19T15:52:41.552Z,99184.72
2023-01-19T15:55:44.625Z,99182.12
2023-01-19T15:58:47.933Z,99202.81
2023-01-19T16:01:50.764Z,99200.25
2023-01-19T16:04:53.634Z,99221.28
2023-01-19T16:07:56.526Z,99214.56
2023-01-19T16:11:11.312Z,99210.28
2023-01-19T16:14:13.502Z,99228.34
2023-01-19T16:17:16.278Z,99242.41
2023-01-19T16:20:18.465Z,99252.00
2023-01-19T16:23:20.881Z,99263.28
2023-01-19T16:26:25.266Z,99266.66
2023-01-19T16:29:27.690Z,99271.91
2023-01-19T16:32:29.799Z,99274.19
2023-01-19T16:35:32.175Z,99289.12
2023-01-19T16:38:34.316Z,99302.22
2023-01-19T16:41:36.974Z,99316.81
2023-01-19T16:44:39.246Z,99321.88
2023-01-19T16:47:41.627Z,99325.78
2023-01-19T16:50:43.755Z,99323.97
2023-01-19T16:53:48.456Z,99331.06
